Time;durP1;ratioP1;P1;durP2;ratioP2;P2;SDS_P1;SDS_P2;PMS_P1;PMS_P2;Temp;Humidity;BMP_temperature;BMP_pressure;BME280_temperature;BME280_humidity;BME280_pressure;Samples;Min_cycle;Max_cycle;Signal;HPM_P1;HPM_P2
2021/12/23 00:01:06;;;;;;;3.13;1.80;;;;;;;;;;5059241;28;20024;-72
2021/12/23 00:03:32;;;;;;;3.97;2.20;;;;;;;;;;5059271;28;20017;-72
2021/12/23 00:05:57;;;;;;;4.30;2.55;;;;;;;;;;5059583;28;20067;-72
2021/12/23 00:08:23;;;;;;;5.25;2.58;;;;;;;;;;5059787;28;20040;-72
2021/12/23 00:10:48;;;;;;;3.42;1.75;;;;;;;;;;5042053;28;20013;-72
2021/12/23 00:13:15;;;;;;;4.18;1.95;;;;;;;;;;5059177;28;20017;-72
2021/12/23 00:16:02;;;;;;;4.57;2.35;;;;;;;;;;5042446;28;20013;-72
2021/12/23 00:23:46;;;;;;;4.65;1.88;;;;;;;;;;5059332;28;20040;-72
2021/12/23 00:26:11;;;;;;;5.07;2.03;;;;;;;;;;5059383;28;20005;-72
2021/12/23 00:28:36;;;;;;;3.30;2.00;;;;;;;;;;5058986;28;20080;-72
2021/12/23 00:31:03;;;;;;;5.97;1.80;;;;;;;;;;5058774;28;20052;-72
2021/12/23 00:33:29;;;;;;;6.10;2.15;;;;;;;;;;5059279;28;20017;-72
2021/12/23 00:35:56;;;;;;;3.30;1.83;;;;;;;;;;5041738;28;20033;-72
2021/12/23 00:38:30;;;;;;;4.05;1.95;;;;;;;;;;5041687;28;20080;-72
2021/12/23 00:40:58;;;;;;;;;;;;;;;;;;5058293;28;20028;-72
2021/12/23 00:43:23;;;;;;;6.95;2.42;;;;;;;;;;5058756;28;19929;-72
2021/12/23 00:45:49;;;;;;;4.53;1.73;;;;;;;;;;5058993;28;20010;-72
2021/12/23 00:48:15;;;;;;;2.08;1.58;;;;;;;;;;5058741;28;20036;-71
2021/12/23 00:50:41;;;;;;;3.00;1.77;;;;;;;;;;5058164;28;20024;-72
2021/12/23 00:53:09;;;;;;;4.57;2.33;;;;;;;;;;5058782;28;20045;-71
2021/12/23 00:55:34;;;;;;;4.47;2.13;;;;;;;;;;5058786;28;20021;-72
2021/12/23 00:58:00;;;;;;;4.15;2.08;;;;;;;;;;5058807;28;20052;-72
2021/12/23 01:00:26;;;;;;;4.45;2.22;;;;;;;;;;5040919;28;20025;-72
2021/12/23 01:02:52;;;;;;;5.72;2.22;;;;;;;;;;5041262;28;20022;-71
2021/12/23 01:05:20;;;;;;;3.72;1.80;;;;;;;;;;5041475;28;20009;-72
2021/12/23 01:07:46;;;;;;;3.30;1.92;;;;;;;;;;5058043;28;20018;-69
2021/12/23 01:10:12;;;;;;;4.72;1.90;;;;;;;;;;5058127;28;20029;-69
2021/12/23 01:12:49;;;;;;;3.38;1.67;;;;;;;;;;5058250;28;20051;-73
2021/12/23 01:15:38;;;;;;;3.33;1.80;;;;;;;;;;5058223;28;20036;-72
2021/12/23 01:18:14;;;;;;;3.25;1.90;;;;;;;;;;5057835;28;20051;-72
2021/12/23 01:20:52;;;;;;;2.83;1.70;;;;;;;;;;5058189;28;20020;-72
2021/12/23 01:23:19;;;;;;;5.22;2.10;;;;;;;;;;5057987;28;20021;-72
2021/12/23 01:25:44;;;;;;;3.17;2.00;;;;;;;;;;5057866;28;20018;-73
2021/12/23 01:28:10;;;;;;;3.92;1.95;;;;;;;;;;5058201;28;20021;-72
2021/12/23 01:30:37;;;;;;;3.17;1.85;;;;;;;;;;5057650;28;20030;-72
2021/12/23 01:33:04;;;;;;;2.55;1.50;;;;;;;;;;5058153;28;20017;-72
2021/12/23 01:35:30;;;;;;;4.10;1.95;;;;;;;;;;5057905;28;20069;-72
2021/12/23 01:37:55;;;;;;;3.38;1.92;;;;;;;;;;5040394;28;20028;-72
2021/12/23 01:40:24;;;;;;;5.45;2.10;;;;;;;;;;5057633;28;20017;-72
2021/12/23 01:42:50;;;;;;;3.15;1.73;;;;;;;;;;5057697;28;20021;-73
2021/12/23 01:45:18;;;;;;;3.78;1.70;;;;;;;;;;5057931;28;20052;-72
2021/12/23 01:47:45;;;;;;;4.30;2.20;;;;;;;;;;5057372;28;20085;-72
2021/12/23 01:50:13;;;;;;;3.05;1.48;;;;;;;;;;5040529;28;20040;-72
2021/12/23 01:52:39;;;;;;;3.45;1.75;;;;;;;;;;5057672;28;20024;-72
2021/12/23 01:55:06;;;;;;;5.00;2.40;;;;;;;;;;5057518;28;20013;-73
2021/12/23 01:57:32;;;;;;;2.83;1.60;;;;;;;;;;5057616;28;20009;-72
2021/12/23 01:59:59;;;;;;;5.57;1.58;;;;;;;;;;5057606;28;20086;-72
2021/12/23 02:02:25;;;;;;;5.13;1.90;;;;;;;;;;5057562;28;20041;-71
2021/12/23 02:04:51;;;;;;;3.20;1.70;;;;;;;;;;5057501;28;20073;-71
2021/12/23 02:07:17;;;;;;;3.60;1.90;;;;;;;;;;5057478;28;20013;-72
2021/12/23 02:09:43;;;;;;;2.92;1.83;;;;;;;;;;5057610;28;20036;-73
2021/12/23 02:12:09;;;;;;;4.70;1.92;;;;;;;;;;5057605;28;20017;-73
2021/12/23 02:14:34;;;;;;;2.95;1.55;;;;;;;;;;5040256;28;20009;-72
2021/12/23 02:17:00;;;;;;;3.60;1.60;;;;;;;;;;5039754;28;20013;-72
2021/12/23 02:19:27;;;;;;;2.63;1.67;;;;;;;;;;5057079;28;20021;-73
2021/12/23 02:21:53;;;;;;;3.47;1.83;;;;;;;;;;5057458;28;20037;-72
2021/12/23 02:24:18;;;;;;;3.20;1.50;;;;;;;;;;5057541;28;20021;-72
2021/12/23 02:26:44;;;;;;;3.45;1.52;;;;;;;;;;5040154;28;20275;-72
2021/12/23 02:29:10;;;;;;;3.45;1.95;;;;;;;;;;5039560;28;20009;-71
2021/12/23 02:31:35;;;;;;;4.45;2.22;;;;;;;;;;5057313;28;20013;-72
2021/12/23 02:34:02;;;;;;;4.03;1.88;;;;;;;;;;5056963;28;20014;-73
2021/12/23 02:36:30;;;;;;;2.00;1.58;;;;;;;;;;5039641;28;20009;-72
2021/12/23 02:38:56;;;;;;;5.05;1.65;;;;;;;;;;5039828;28;20032;-73
2021/12/23 02:41:21;;;;;;;2.20;1.50;;;;;;;;;;5056817;28;20032;-72
2021/12/23 02:43:47;;;;;;;3.60;1.88;;;;;;;;;;5056681;28;20044;-72
2021/12/23 02:46:13;;;;;;;2.25;1.52;;;;;;;;;;5056809;28;20016;-71
2021/12/23 02:48:39;;;;;;;3.03;1.67;;;;;;;;;;5039442;28;20020;-72
2021/12/23 02:51:11;;;;;;;3.05;1.35;;;;;;;;;;5056932;28;20024;-73
2021/12/23 02:53:38;;;;;;;5.13;1.60;;;;;;;;;;5056963;28;20016;-72
2021/12/23 02:56:06;;;;;;;2.45;1.30;;;;;;;;;;5057125;28;20013;-73
2021/12/23 02:58:31;;;;;;;2.92;1.80;;;;;;;;;;5057123;28;20045;-72
2021/12/23 03:00:59;;;;;;;3.15;1.70;;;;;;;;;;5056578;28;20040;-73
2021/12/23 03:03:25;;;;;;;2.35;1.30;;;;;;;;;;5039137;28;20014;-72
2021/12/23 03:05:53;;;;;;;2.85;1.48;;;;;;;;;;5039565;28;20035;-73
2021/12/23 03:08:34;;;;;;;2.42;1.60;;;;;;;;;;5056778;28;20010;-73
2021/12/23 03:11:00;;;;;;;3.25;1.77;;;;;;;;;;5039306;28;20044;-72
2021/12/23 03:13:26;;;;;;;2.75;1.45;;;;;;;;;;5057514;28;20010;-72
2021/12/23 03:15:51;;;;;;;1.70;1.30;;;;;;;;;;5059593;28;20063;-72
2021/12/23 03:18:17;;;;;;;2.78;1.55;;;;;;;;;;5043150;28;20041;-72
2021/12/23 03:20:42;;;;;;;4.28;1.92;;;;;;;;;;5060384;28;20032;-73
2021/12/23 03:23:08;;;;;;;2.10;1.40;;;;;;;;;;5060020;28;20037;-71
2021/12/23 03:25:33;;;;;;;4.32;1.80;;;;;;;;;;5059387;28;20032;-73
2021/12/23 03:27:58;;;;;;;5.20;1.50;;;;;;;;;;5043027;28;20017;-72
2021/12/23 03:30:24;;;;;;;2.33;1.42;;;;;;;;;;5059518;28;20041;-73
2021/12/23 03:32:49;;;;;;;2.20;1.27;;;;;;;;;;5060166;28;20027;-72
2021/12/23 03:35:16;;;;;;;3.10;1.67;;;;;;;;;;5060194;28;20014;-73
2021/12/23 03:37:42;;;;;;;1.67;1.33;;;;;;;;;;5060327;28;20032;-73
2021/12/23 03:40:08;;;;;;;4.70;1.58;;;;;;;;;;5060019;28;20014;-72
2021/12/23 03:42:33;;;;;;;2.65;1.58;;;;;;;;;;5060061;28;20174;-72
2021/12/23 03:44:59;;;;;;;2.53;1.65;;;;;;;;;;5060221;28;20013;-73
2021/12/23 03:47:24;;;;;;;2.65;1.77;;;;;;;;;;5059814;28;20009;-72
2021/12/23 03:49:49;;;;;;;2.95;1.63;;;;;;;;;;5059919;28;20014;-73
2021/12/23 03:52:15;;;;;;;4.07;2.10;;;;;;;;;;5060055;28;20013;-73
2021/12/23 03:54:40;;;;;;;2.15;1.45;;;;;;;;;;5059926;28;20022;-72
2021/12/23 03:57:06;;;;;;;3.15;1.55;;;;;;;;;;5042503;28;20010;-73
2021/12/23 03:59:31;;;;;;;2.47;1.63;;;;;;;;;;5042708;28;20022;-72
2021/12/23 04:01:57;;;;;;;2.15;1.20;;;;;;;;;;5059152;28;20079;-72
2021/12/23 04:04:22;;;;;;;2.97;1.60;;;;;;;;;;5059427;28;20025;-73
2021/12/23 04:06:48;;;;;;;3.22;1.73;;;;;;;;;;5059758;28;20013;-72
2021/12/23 04:09:13;;;;;;;3.05;1.67;;;;;;;;;;5059344;28;20036;-73
2021/12/23 04:11:38;;;;;;;2.30;1.40;;;;;;;;;;5059382;28;20052;-73
2021/12/23 04:14:04;;;;;;;2.65;1.58;;;;;;;;;;5042010;28;20020;-73
2021/12/23 04:16:29;;;;;;;2.20;1.30;;;;;;;;;;5058918;28;20013;-73
2021/12/23 04:18:55;;;;;;;3.25;2.03;;;;;;;;;;5059220;28;20064;-73
2021/12/23 04:21:20;;;;;;;3.67;2.17;;;;;;;;;;5042228;28;20021;-72
2021/12/23 04:23:46;;;;;;;2.90;1.45;;;;;;;;;;5059382;28;20017;-72
2021/12/23 04:26:12;;;;;;;3.38;2.00;;;;;;;;;;5041044;28;20009;-73
2021/12/23 04:28:46;;;;;;;3.58;1.95;;;;;;;;;;5041728;28;20017;-72
2021/12/23 04:31:17;;;;;;;2.72;1.50;;;;;;;;;;5038465;28;20053;-72
2021/12/23 04:33:44;;;;;;;3.10;1.92;;;;;;;;;;5038753;28;20026;-72
2021/12/23 04:36:09;;;;;;;3.90;1.77;;;;;;;;;;5039456;28;20014;-72
2021/12/23 04:38:37;;;;;;;2.38;1.42;;;;;;;;;;5038333;28;20014;-72
2021/12/23 04:41:02;;;;;;;2.88;1.30;;;;;;;;;;5037898;28;20021;-72
2021/12/23 04:43:28;;;;;;;2.75;1.23;;;;;;;;;;5038863;28;20024;-72
2021/12/23 04:45:53;;;;;;;3.03;1.55;;;;;;;;;;5038029;28;20024;-71
2021/12/23 04:48:18;;;;;;;2.38;1.45;;;;;;;;;;5038189;28;20022;-71
2021/12/23 04:50:44;;;;;;;2.90;1.30;;;;;;;;;;5039071;28;20072;-72
2021/12/23 04:53:09;;;;;;;2.70;1.45;;;;;;;;;;5038836;28;20029;-71
2021/12/23 04:55:35;;;;;;;3.83;1.73;;;;;;;;;;5037680;28;20006;-71
2021/12/23 04:58:00;;;;;;;2.88;1.50;;;;;;;;;;5038041;28;20045;-71
2021/12/23 05:00:27;;;;;;;2.65;1.50;;;;;;;;;;5037928;28;20253;-72
2021/12/23 05:02:52;;;;;;;2.38;1.20;;;;;;;;;;5038744;28;20073;-72
2021/12/23 05:05:17;;;;;;;2.00;1.15;;;;;;;;;;5038743;28;20045;-72
2021/12/23 05:07:43;;;;;;;2.38;1.55;;;;;;;;;;5038782;28;20025;-72
2021/12/23 05:10:11;;;;;;;2.88;1.30;;;;;;;;;;5038826;28;20014;-72
2021/12/23 05:12:42;;;;;;;2.80;1.50;;;;;;;;;;5038623;28;20046;-72
2021/12/23 05:15:10;;;;;;;3.10;1.50;;;;;;;;;;5037877;28;20010;-72
2021/12/23 05:17:35;;;;;;;2.25;1.23;;;;;;;;;;5038354;28;20033;-72
2021/12/23 05:20:01;;;;;;;1.95;1.33;;;;;;;;;;5038072;28;20010;-72
2021/12/23 05:22:26;;;;;;;2.15;1.45;;;;;;;;;;5038153;28;20032;-72
2021/12/23 05:24:52;;;;;;;2.35;1.38;;;;;;;;;;5038234;28;20013;-71
2021/12/23 05:27:17;;;;;;;4.60;1.50;;;;;;;;;;5037963;28;20014;-72
2021/12/23 05:29:43;;;;;;;3.00;1.45;;;;;;;;;;5042691;28;20021;-72
2021/12/23 05:32:08;;;;;;;3.58;1.65;;;;;;;;;;5058215;28;20009;-72
2021/12/23 05:34:34;;;;;;;2.78;1.60;;;;;;;;;;5041086;28;20222;-72
2021/12/23 05:36:59;;;;;;;2.85;1.58;;;;;;;;;;5040464;28;20010;-71
2021/12/23 05:39:25;;;;;;;2.28;1.40;;;;;;;;;;5058134;28;20028;-72
2021/12/23 05:41:50;;;;;;;2.90;1.40;;;;;;;;;;5040299;28;20028;-72
2021/12/23 05:44:15;;;;;;;3.03;1.88;;;;;;;;;;5040713;28;20021;-72
2021/12/23 05:46:41;;;;;;;2.13;1.27;;;;;;;;;;5057188;28;20080;-72
2021/12/23 05:49:06;;;;;;;3.72;1.35;;;;;;;;;;5057172;28;20052;-72
2021/12/23 05:51:32;;;;;;;1.45;1.13;;;;;;;;;;5057117;28;20013;-71
2021/12/23 05:53:57;;;;;;;5.28;1.73;;;;;;;;;;5040648;28;20093;-72
2021/12/23 05:56:23;;;;;;;4.95;1.63;;;;;;;;;;5057541;28;20013;-73
2021/12/23 05:58:48;;;;;;;2.35;1.67;;;;;;;;;;5057477;28;20013;-72
2021/12/23 06:01:13;;;;;;;3.05;1.58;;;;;;;;;;5040093;28;20029;-72
2021/12/23 06:03:40;;;;;;;3.55;1.42;;;;;;;;;;5040348;28;20017;-72
2021/12/23 06:06:05;;;;;;;2.33;1.42;;;;;;;;;;5057546;28;20016;-72
2021/12/23 06:08:31;;;;;;;3.45;1.80;;;;;;;;;;5057190;28;20021;-72
2021/12/23 06:10:56;;;;;;;7.90;1.80;;;;;;;;;;5057223;28;20078;-72
2021/12/23 06:13:22;;;;;;;2.33;1.50;;;;;;;;;;5057219;28;20018;-72
2021/12/23 06:15:47;;;;;;;2.97;1.70;;;;;;;;;;5040039;28;20006;-71
2021/12/23 06:18:13;;;;;;;3.17;1.70;;;;;;;;;;5040428;28;20018;-72
2021/12/23 06:20:38;;;;;;;2.22;1.45;;;;;;;;;;5057410;28;20025;-73
2021/12/23 06:23:05;;;;;;;4.20;2.15;;;;;;;;;;5057103;28;20040;-72
2021/12/23 06:25:30;;;;;;;1.98;1.30;;;;;;;;;;5057354;28;20044;-72
2021/12/23 06:27:56;;;;;;;3.00;1.88;;;;;;;;;;5056974;28;20022;-72
2021/12/23 06:30:21;;;;;;;2.42;1.63;;;;;;;;;;5039591;28;20033;-72
2021/12/23 06:32:50;;;;;;;2.58;1.42;;;;;;;;;;5039384;28;20016;-72
2021/12/23 06:35:16;;;;;;;2.72;1.52;;;;;;;;;;5056982;28;20010;-72
2021/12/23 06:37:42;;;;;;;2.97;1.75;;;;;;;;;;5056807;28;20089;-72
2021/12/23 06:40:08;;;;;;;2.97;1.63;;;;;;;;;;5039548;28;20040;-72
2021/12/23 06:42:34;;;;;;;2.90;1.70;;;;;;;;;;5040052;28;20022;-71
2021/12/23 06:44:59;;;;;;;3.28;1.88;;;;;;;;;;5056754;28;20016;-72
2021/12/23 06:47:25;;;;;;;3.25;1.75;;;;;;;;;;5056847;28;20021;-72
2021/12/23 06:49:50;;;;;;;2.63;1.67;;;;;;;;;;5043151;28;20009;-72
2021/12/23 06:52:18;;;;;;;2.75;1.45;;;;;;;;;;5061045;28;20021;-71
2021/12/23 06:54:46;;;;;;;3.25;1.38;;;;;;;;;;5060463;28;20077;-72
2021/12/23 06:57:11;;;;;;;2.88;1.60;;;;;;;;;;5042842;28;20032;-72
2021/12/23 06:59:37;;;;;;;2.72;1.63;;;;;;;;;;5043211;28;20033;-72
2021/12/23 07:02:02;;;;;;;2.38;1.50;;;;;;;;;;5060214;28;20020;-72
2021/12/23 07:04:31;;;;;;;2.40;1.50;;;;;;;;;;5060435;28;20013;-72
2021/12/23 07:07:51;;;;;;;2.95;1.52;;;;;;;;;;5060587;28;20009;-72
2021/12/23 07:09:43;;;;;;;2.15;1.40;;;;;;;;;;5055901;28;20158;-72
2021/12/23 07:12:10;;;;;;;3.75;1.40;;;;;;;;;;5060620;28;20025;-73
2021/12/23 07:14:37;;;;;;;3.13;1.50;;;;;;;;;;5060787;28;20017;-73
2021/12/23 07:17:03;;;;;;;2.90;1.50;;;;;;;;;;5060852;28;20013;-73
2021/12/23 07:19:29;;;;;;;3.13;1.63;;;;;;;;;;5060707;28;20017;-73
2021/12/23 07:21:54;;;;;;;2.75;1.60;;;;;;;;;;5060687;28;20047;-72
2021/12/23 07:24:20;;;;;;;2.58;1.52;;;;;;;;;;5060514;28;20028;-73
2021/12/23 07:26:46;;;;;;;3.72;1.83;;;;;;;;;;5043390;28;20005;-73
2021/12/23 07:29:12;;;;;;;4.75;1.70;;;;;;;;;;5043007;28;20020;-72
2021/12/23 07:31:37;;;;;;;4.95;1.50;;;;;;;;;;5060264;28;20087;-73
2021/12/23 07:34:02;;;;;;;2.42;1.40;;;;;;;;;;5060278;28;20025;-73
2021/12/23 07:36:28;;;;;;;3.60;1.80;;;;;;;;;;5060333;28;20006;-73
2021/12/23 07:38:56;;;;;;;3.00;1.50;;;;;;;;;;5060341;28;20071;-72
2021/12/23 07:41:22;;;;;;;2.42;1.42;;;;;;;;;;5043010;28;20014;-73
2021/12/23 07:46:23;;;;;;;3.28;1.58;;;;;;;;;;5060116;28;20065;-73
2021/12/23 07:48:48;;;;;;;4.57;1.70;;;;;;;;;;5042292;28;20032;-72
2021/12/23 07:51:14;;;;;;;3.10;1.52;;;;;;;;;;5058681;28;20013;-73
2021/12/23 07:53:39;;;;;;;2.70;1.48;;;;;;;;;;5059718;28;20017;-73
2021/12/23 07:56:04;;;;;;;2.75;1.60;;;;;;;;;;5059515;28;20005;-73
2021/12/23 07:58:30;;;;;;;2.40;1.35;;;;;;;;;;5059955;28;20077;-73
2021/12/23 08:00:55;;;;;;;3.22;1.60;;;;;;;;;;5042277;28;20108;-72
2021/12/23 08:03:21;;;;;;;2.45;1.35;;;;;;;;;;5042608;28;20024;-73
2021/12/23 08:05:46;;;;;;;2.40;1.40;;;;;;;;;;5042307;28;20020;-72
2021/12/23 08:08:11;;;;;;;5.00;1.40;;;;;;;;;;5059543;28;20020;-73
2021/12/23 08:10:37;;;;;;;3.17;1.48;;;;;;;;;;5059564;28;20009;-73
2021/12/23 08:13:02;;;;;;;3.08;1.80;;;;;;;;;;5059528;28;20017;-73
2021/12/23 08:15:28;;;;;;;2.90;1.40;;;;;;;;;;5059692;28;20121;-73
2021/12/23 08:17:54;;;;;;;3.00;1.40;;;;;;;;;;5059550;28;20033;-73
2021/12/23 08:20:20;;;;;;;2.47;1.35;;;;;;;;;;5059369;28;20039;-73
2021/12/23 08:22:46;;;;;;;3.47;1.77;;;;;;;;;;5059437;28;20017;-74
2021/12/23 08:25:13;;;;;;;2.28;1.50;;;;;;;;;;5041588;28;20013;-73
2021/12/23 08:27:40;;;;;;;3.95;1.50;;;;;;;;;;5059065;28;20009;-72
2021/12/23 08:30:07;;;;;;;3.88;2.00;;;;;;;;;;5041358;28;20029;-73
2021/12/23 08:32:33;;;;;;;3.40;1.75;;;;;;;;;;5058874;28;20037;-73
2021/12/23 08:34:58;;;;;;;3.05;1.73;;;;;;;;;;5041420;28;20044;-73
2021/12/23 08:37:24;;;;;;;6.47;1.65;;;;;;;;;;5058823;28;20030;-72
2021/12/23 08:39:50;;;;;;;2.95;1.50;;;;;;;;;;5041488;28;20123;-73
2021/12/23 08:42:16;;;;;;;4.35;1.80;;;;;;;;;;5041379;28;20029;-73
2021/12/23 08:44:41;;;;;;;3.42;1.88;;;;;;;;;;5058849;28;20028;-73
2021/12/23 08:47:08;;;;;;;3.92;1.90;;;;;;;;;;5041223;28;20240;-73
2021/12/23 08:49:34;;;;;;;3.53;1.70;;;;;;;;;;5058384;28;20021;-73
2021/12/23 08:51:59;;;;;;;3.25;1.70;;;;;;;;;;5058470;28;20043;-73
2021/12/23 08:54:24;;;;;;;2.20;1.50;;;;;;;;;;5058438;28;20082;-73
2021/12/23 08:56:50;;;;;;;3.83;1.80;;;;;;;;;;5058347;28;20010;-73
2021/12/23 08:59:17;;;;;;;3.05;1.63;;;;;;;;;;5041124;28;20026;-73
2021/12/23 09:01:42;;;;;;;3.70;2.03;;;;;;;;;;5058353;28;20063;-73
2021/12/23 09:04:08;;;;;;;3.00;1.73;;;;;;;;;;5041175;28;20022;-73
2021/12/23 09:06:33;;;;;;;4.40;1.83;;;;;;;;;;5040942;28;20029;-73
2021/12/23 09:08:59;;;;;;;2.88;1.73;;;;;;;;;;5058203;28;20028;-73
2021/12/23 09:11:25;;;;;;;4.78;2.30;;;;;;;;;;5057645;28;20013;-73
2021/12/23 09:13:51;;;;;;;4.70;2.00;;;;;;;;;;5058157;28;20013;-74
2021/12/23 09:16:17;;;;;;;3.58;2.00;;;;;;;;;;5040841;28;20012;-74
2021/12/23 09:18:42;;;;;;;5.22;2.17;;;;;;;;;;5057966;28;20049;-73
2021/12/23 09:21:08;;;;;;;4.82;2.25;;;;;;;;;;5057873;28;20044;-74
2021/12/23 09:23:33;;;;;;;4.18;2.22;;;;;;;;;;5057862;28;20026;-74
2021/12/23 09:25:59;;;;;;;4.07;2.33;;;;;;;;;;5057995;28;20024;-73
2021/12/23 09:34:08;;;;;;;5.60;2.83;;;;;;;;;;5057929;28;20016;-73
2021/12/23 09:36:35;;;;;;;5.97;3.08;;;;;;;;;;5057436;28;20032;-73
2021/12/23 09:39:06;;;;;;;6.75;3.13;;;;;;;;;;5057624;28;20013;-73
2021/12/23 09:41:34;;;;;;;6.25;3.30;;;;;;;;;;5057608;28;20018;-73
2021/12/23 09:44:01;;;;;;;5.15;3.03;;;;;;;;;;5057776;28;20040;-73
2021/12/23 09:46:26;;;;;;;6.70;3.28;;;;;;;;;;5057177;28;20010;-73
2021/12/23 09:48:52;;;;;;;5.93;3.40;;;;;;;;;;5040542;28;20044;-73
2021/12/23 09:51:19;;;;;;;7.65;3.15;;;;;;;;;;5057152;28;20100;-73
2021/12/23 09:53:47;;;;;;;6.22;3.33;;;;;;;;;;5057595;28;20033;-73
2021/12/23 09:56:12;;;;;;;6.93;3.50;;;;;;;;;;5057501;28;20013;-73
2021/12/23 09:58:38;;;;;;;5.25;3.08;;;;;;;;;;5039510;28;20039;-73
2021/12/23 10:01:05;;;;;;;5.93;3.33;;;;;;;;;;5057393;28;20049;-72
2021/12/23 10:03:31;;;;;;;8.13;3.40;;;;;;;;;;5040420;28;20017;-73
2021/12/23 10:05:59;;;;;;;6.05;2.88;;;;;;;;;;5057562;28;20018;-73
2021/12/23 10:08:27;;;;;;;5.95;3.30;;;;;;;;;;5040252;28;20030;-73
2021/12/23 10:10:58;;;;;;;5.95;3.45;;;;;;;;;;5040247;28;20089;-73
2021/12/23 10:33:48;;;;;;;5.07;2.80;;;;;;;;;;4997002;28;20043;-72
2021/12/23 10:38:50;;;;;;;6.45;3.03;;;;;;;;;;5041012;28;20096;-72
2021/12/23 10:41:20;;;;;;;5.88;2.70;;;;;;;;;;5057166;28;20033;-72
2021/12/23 10:43:48;;;;;;;4.90;3.05;;;;;;;;;;5057228;28;20303;-72
2021/12/23 10:46:19;;;;;;;5.25;3.13;;;;;;;;;;5039981;28;20013;-72
2021/12/23 10:49:15;;;;;;;7.45;3.30;;;;;;;;;;5039962;28;20037;-73
2021/12/23 10:51:57;;;;;;;5.75;3.00;;;;;;;;;;5057121;28;20018;-73
2021/12/23 10:58:01;;;;;;;5.72;3.00;;;;;;;;;;5039967;28;20029;-73
2021/12/23 11:00:30;;;;;;;4.40;2.53;;;;;;;;;;5051703;28;20040;-73
2021/12/23 11:03:00;;;;;;;4.68;2.67;;;;;;;;;;5057148;28;20018;-73
2021/12/23 11:05:30;;;;;;;5.35;2.78;;;;;;;;;;5057074;28;20023;-73
2021/12/23 11:38:48;;;;;;;5.78;3.53;;;;;;;;;;5059932;28;20034;-73
2021/12/23 11:41:35;;;;;;;6.22;3.10;;;;;;;;;;5042469;28;20013;-74
2021/12/23 11:44:03;;;;;;;6.22;2.83;;;;;;;;;;5059531;28;20033;-74
2021/12/23 11:46:49;;;;;;;6.05;2.92;;;;;;;;;;5060010;28;20020;-74
2021/12/23 11:49:16;;;;;;;4.72;2.67;;;;;;;;;;5042500;28;20018;-74
2021/12/23 11:51:51;;;;;;;4.78;2.75;;;;;;;;;;5059930;28;20021;-74
2021/12/23 11:54:23;;;;;;;4.68;2.92;;;;;;;;;;5059573;28;20032;-74
2021/12/23 11:56:52;;;;;;;4.80;2.78;;;;;;;;;;5059978;28;20016;-74
2021/12/23 11:59:19;;;;;;;4.60;2.45;;;;;;;;;;5042582;28;20021;-75
2021/12/23 12:01:54;;;;;;;4.43;2.63;;;;;;;;;;5059722;28;20018;-74
2021/12/23 12:04:37;;;;;;;4.45;2.58;;;;;;;;;;5059724;28;20044;-74
2021/12/23 12:07:23;;;;;;;4.70;2.72;;;;;;;;;;5042422;28;20104;-74
2021/12/23 12:10:03;;;;;;;3.83;2.45;;;;;;;;;;5059699;28;20037;-74
2021/12/23 12:12:30;;;;;;;4.50;2.60;;;;;;;;;;5059619;28;20024;-74
2021/12/23 12:14:56;;;;;;;5.32;2.70;;;;;;;;;;5059539;28;20013;-73
2021/12/23 12:17:30;;;;;;;3.47;2.15;;;;;;;;;;5059515;28;20044;-74
2021/12/23 12:20:26;;;;;;;4.32;2.80;;;;;;;;;;5059500;28;20037;-73
2021/12/23 12:22:56;;;;;;;1.88;1.20;;;;;;;;;;5059573;28;20021;-74
2021/12/23 12:25:25;;;;;;;2.63;1.70;;;;;;;;;;5059277;28;20065;-74
2021/12/23 12:28:10;;;;;;;3.05;1.70;;;;;;;;;;5059401;28;20089;-73
2021/12/23 12:31:01;;;;;;;3.80;1.42;;;;;;;;;;5059108;28;20036;-73
2021/12/23 12:33:26;;;;;;;2.03;1.38;;;;;;;;;;5059167;28;20013;-73
2021/12/23 12:35:58;;;;;;;2.03;1.45;;;;;;;;;;5059080;28;20077;-73
2021/12/23 12:38:26;;;;;;;2.13;1.50;;;;;;;;;;5059207;28;20051;-73
2021/12/23 12:41:09;;;;;;;1.42;1.10;;;;;;;;;;5058980;28;20025;-73
2021/12/23 12:43:38;;;;;;;1.73;1.40;;;;;;;;;;5058994;28;20013;-73
2021/12/23 12:46:04;;;;;;;1.70;1.20;;;;;;;;;;5057930;28;20020;-72
2021/12/23 12:49:15;;;;;;;2.95;1.38;;;;;;;;;;5041641;28;20017;-73
2021/12/23 12:51:46;;;;;;;1.23;1.05;;;;;;;;;;5031673;28;20021;-72
2021/12/23 12:54:17;;;;;;;2.10;1.38;;;;;;;;;;5040405;28;20021;-73
2021/12/23 12:56:49;;;;;;;2.08;1.50;;;;;;;;;;5058468;28;20040;-73
2021/12/23 12:59:17;;;;;;;2.30;1.33;;;;;;;;;;5058557;28;20017;-72
2021/12/23 13:01:50;;;;;;;1.75;1.25;;;;;;;;;;5058602;28;20032;-73
2021/12/23 13:04:28;;;;;;;2.13;1.17;;;;;;;;;;5058681;28;20017;-73
2021/12/23 13:06:55;;;;;;;1.42;0.90;;;;;;;;;;5058413;28;20009;-72
2021/12/23 13:09:27;;;;;;;2.42;1.40;;;;;;;;;;5058376;28;20013;-73
2021/12/23 13:11:55;;;;;;;1.52;1.10;;;;;;;;;;5058481;28;20025;-73
2021/12/23 13:14:22;;;;;;;2.42;1.60;;;;;;;;;;5058545;28;20017;-72
2021/12/23 13:16:54;;;;;;;3.22;1.10;;;;;;;;;;5058343;28;20010;-73
2021/12/23 13:19:27;;;;;;;2.00;1.20;;;;;;;;;;5058441;28;20040;-73
2021/12/23 13:21:56;;;;;;;3.65;1.90;;;;;;;;;;5041044;28;20092;-73
2021/12/23 13:24:23;;;;;;;2.40;1.55;;;;;;;;;;5058291;28;20032;-73
2021/12/23 13:26:51;;;;;;;2.13;1.50;;;;;;;;;;5058194;28;20009;-72
2021/12/23 13:29:17;;;;;;;1.23;0.90;;;;;;;;;;5058270;28;20013;-73
2021/12/23 13:31:45;;;;;;;3.90;2.33;;;;;;;;;;5057222;28;20034;-72
2021/12/23 13:34:18;;;;;;;3.42;2.15;;;;;;;;;;5057300;28;20041;-73
2021/12/23 13:36:52;;;;;;;2.97;1.80;;;;;;;;;;5057429;28;20021;-73
2021/12/23 13:39:26;;;;;;;4.22;2.38;;;;;;;;;;5057188;28;20056;-72
2021/12/23 13:41:57;;;;;;;2.20;1.40;;;;;;;;;;5057149;28;20033;-72
2021/12/23 13:44:27;;;;;;;5.45;2.30;;;;;;;;;;5057119;28;20017;-72
2021/12/23 13:47:15;;;;;;;4.70;2.03;;;;;;;;;;5056910;28;20021;-72
2021/12/23 13:49:46;;;;;;;4.18;2.75;;;;;;;;;;5038713;28;20014;-71
2021/12/23 13:52:27;;;;;;;5.05;2.42;;;;;;;;;;5056237;28;20040;-72
2021/12/23 13:54:55;;;;;;;4.47;2.50;;;;;;;;;;5057056;28;20031;-72
2021/12/23 13:57:22;;;;;;;1.58;1.05;;;;;;;;;;5056526;28;20033;-74
2021/12/23 13:59:50;;;;;;;4.70;2.28;;;;;;;;;;5039691;28;20037;-72
2021/12/23 14:02:27;;;;;;;4.85;2.95;;;;;;;;;;5056703;28;20044;-72
2021/12/23 14:05:02;;;;;;;4.45;2.60;;;;;;;;;;5056987;28;20036;-73
2021/12/23 14:07:39;;;;;;;4.75;2.58;;;;;;;;;;5039708;28;20041;-73
2021/12/23 14:10:08;;;;;;;3.78;1.92;;;;;;;;;;5039529;28;20043;-72
2021/12/23 14:12:48;;;;;;;5.82;2.90;;;;;;;;;;5039593;28;20232;-73
2021/12/23 14:15:22;;;;;;;4.57;2.65;;;;;;;;;;5039478;28;20089;-73
2021/12/23 14:17:53;;;;;;;3.88;2.05;;;;;;;;;;5039439;28;20025;-73
2021/12/23 14:23:17;;;;;;;3.95;2.65;;;;;;;;;;5056772;28;20113;-73
2021/12/23 14:26:03;;;;;;;4.32;2.65;;;;;;;;;;5056582;28;20009;-73
2021/12/23 14:29:08;;;;;;;5.28;3.08;;;;;;;;;;5039250;28;20095;-73
2021/12/23 14:31:39;;;;;;;5.43;3.40;;;;;;;;;;5009108;28;1107101;-73
2021/12/23 14:34:18;;;;;;;8.45;3.80;;;;;;;;;;5057446;28;20021;-73
2021/12/23 14:36:46;;;;;;;7.22;4.20;;;;;;;;;;5057214;28;20039;-73
2021/12/23 14:39:31;;;;;;;5.72;3.80;;;;;;;;;;5040204;28;20039;-73
2021/12/23 14:42:15;;;;;;;5.05;2.40;;;;;;;;;;5056844;28;20021;-73
2021/12/23 14:44:42;;;;;;;7.53;4.68;;;;;;;;;;5040149;28;20017;-73
2021/12/23 14:47:24;;;;;;;5.78;3.65;;;;;;;;;;5057280;28;20009;-73
2021/12/23 14:50:24;;;;;;;6.45;3.35;;;;;;;;;;5039928;28;20020;-73
2021/12/23 14:52:53;;;;;;;6.65;3.72;;;;;;;;;;5056283;28;20041;-73
2021/12/23 14:55:20;;;;;;;5.88;3.13;;;;;;;;;;5057164;28;20013;-73
2021/12/23 14:57:48;;;;;;;5.57;3.20;;;;;;;;;;5056941;28;20028;-73
2021/12/23 15:00:22;;;;;;;7.05;4.10;;;;;;;;;;5057214;28;20021;-73
2021/12/23 15:02:48;;;;;;;5.00;2.88;;;;;;;;;;5057034;28;20022;-72
2021/12/23 15:05:16;;;;;;;6.72;4.25;;;;;;;;;;5039750;28;20048;-73
2021/12/23 15:07:54;;;;;;;6.30;2.95;;;;;;;;;;5056919;28;20066;-72
2021/12/23 15:10:29;;;;;;;8.73;3.95;;;;;;;;;;5042004;28;20010;-73
2021/12/23 15:12:54;;;;;;;6.80;3.13;;;;;;;;;;5060213;28;20036;-73
2021/12/23 15:15:20;;;;;;;7.15;3.17;;;;;;;;;;5060699;28;20013;-73
2021/12/23 15:17:52;;;;;;;5.03;3.28;;;;;;;;;;5043286;28;20017;-72
2021/12/23 15:20:27;;;;;;;4.72;2.83;;;;;;;;;;5060528;28;20009;-73
2021/12/23 15:22:56;;;;;;;4.50;2.70;;;;;;;;;;5060296;28;20017;-72
2021/12/23 15:25:31;;;;;;;5.07;3.13;;;;;;;;;;5060368;28;20010;-73
2021/12/23 15:27:57;;;;;;;4.00;2.22;;;;;;;;;;5060440;28;20017;-73
2021/12/23 15:30:29;;;;;;;6.18;3.70;;;;;;;;;;5059994;28;20025;-72
2021/12/23 15:32:55;;;;;;;5.45;3.05;;;;;;;;;;5060422;28;20036;-72
2021/12/23 15:35:24;;;;;;;13.82;8.20;;;;;;;;;;5060217;28;20052;-73
2021/12/23 15:37:53;;;;;;;4.32;2.85;;;;;;;;;;5060249;28;20021;-73
2021/12/23 15:40:22;;;;;;;4.63;2.97;;;;;;;;;;5060219;28;20031;-73
2021/12/23 15:42:49;;;;;;;5.10;3.10;;;;;;;;;;5060073;28;20035;-73
2021/12/23 15:45:15;;;;;;;5.60;3.13;;;;;;;;;;5042789;28;20041;-72
2021/12/23 15:47:42;;;;;;;4.35;2.90;;;;;;;;;;5059820;28;20017;-72
2021/12/23 15:50:09;;;;;;;5.50;2.40;;;;;;;;;;5042631;28;20244;-71
2021/12/23 15:52:35;;;;;;;5.82;3.10;;;;;;;;;;5060048;28;20018;-72
2021/12/23 15:55:00;;;;;;;5.57;3.00;;;;;;;;;;5059717;28;20088;-73
2021/12/23 15:57:26;;;;;;;6.82;2.97;;;;;;;;;;5059460;28;20017;-73
2021/12/23 15:59:52;;;;;;;5.22;2.92;;;;;;;;;;5059648;28;20013;-73
2021/12/23 16:02:24;;;;;;;7.60;3.22;;;;;;;;;;5042533;28;20041;-72
2021/12/23 16:07:27;;;;;;;8.00;3.45;;;;;;;;;;5059770;28;20009;-73